createdAt,value
2023-01-23T00:00:48.362Z,19.63
2023-01-23T00:03:15.251Z,19.13
2023-01-23T00:05:42.178Z,19.43
2023-01-23T00:08:10.579Z,19.77
2023-01-23T00:10:38.492Z,19.43
2023-01-23T00:13:05.389Z,18.67
2023-01-23T00:15:33.633Z,18.43
2023-01-23T00:18:00.451Z,18.97
2023-01-23T00:20:27.698Z,19.33
2023-01-23T00:22:54.944Z,18.27
2023-01-23T00:25:23.516Z,19.40
2023-01-23T00:27:50.331Z,19.03
2023-01-23T00:30:18.592Z,20.27
2023-01-23T00:32:45.542Z,20.23
2023-01-23T00:35:12.774Z,19.57
2023-01-23T00:37:39.642Z,20.80
2023-01-23T00:40:08.236Z,20.53
2023-01-23T00:42:36.417Z,20.17
2023-01-23T00:45:04.045Z,22.10
2023-01-23T00:47:30.866Z,21.90
2023-01-23T00:49:59.267Z,21.73
2023-01-23T00:52:26.444Z,22.33
2023-01-23T00:54:53.737Z,21.53
2023-01-23T00:57:20.645Z,21.83
2023-01-23T00:59:49.180Z,22.23
2023-01-23T01:02:15.986Z,22.17
2023-01-23T01:04:43.114Z,22.27
2023-01-23T01:07:09.927Z,22.83
2023-01-23T01:09:37.210Z,22.03
2023-01-23T01:12:04.406Z,21.00
2023-01-23T01:14:31.583Z,21.37
2023-01-23T01:16:59.796Z,21.20
2023-01-23T01:19:28.510Z,21.80
2023-01-23T01:21:55.347Z,21.97
2023-01-23T01:24:22.690Z,22.97
2023-01-23T01:26:49.533Z,23.13
2023-01-23T01:29:16.725Z,22.30
2023-01-23T01:31:43.632Z,22.90
2023-01-23T01:34:13.033Z,22.47
2023-01-23T01:36:40.304Z,21.57
2023-01-23T01:39:07.899Z,22.47
2023-01-23T01:41:35.735Z,22.33
2023-01-23T01:44:02.907Z,22.83
2023-01-23T01:46:30.955Z,23.47
2023-01-23T01:49:05.843Z,23.77
2023-01-23T01:51:38.430Z,24.03
2023-01-23T01:54:11.191Z,23.47
2023-01-23T01:56:43.462Z,24.90
2023-01-23T01:59:11.767Z,23.53
2023-01-23T02:01:40.023Z,24.57
2023-01-23T02:04:08.174Z,24.47
2023-01-23T02:06:36.514Z,25.83
2023-01-23T02:09:08.922Z,25.30
2023-01-23T02:11:36.761Z,26.53
2023-01-23T02:14:03.760Z,26.63
2023-01-23T02:16:40.049Z,27.10
2023-01-23T02:19:18.899Z,25.63
2023-01-23T02:21:49.682Z,23.70
2023-01-23T02:24:25.992Z,24.27
2023-01-23T02:26:54.172Z,26.47
2023-01-23T02:29:21.374Z,24.73
2023-01-23T02:31:49.645Z,24.93
2023-01-23T02:34:17.109Z,25.03
2023-01-23T02:36:47.531Z,24.50
2023-01-23T02:39:16.598Z,24.93
2023-01-23T02:41:45.546Z,23.33
2023-01-23T02:44:18.387Z,24.70
2023-01-23T02:46:45.436Z,22.97
2023-01-23T02:49:12.946Z,22.90
2023-01-23T02:51:39.785Z,22.87
2023-01-23T02:54:06.903Z,22.70
2023-01-23T02:56:33.968Z,22.70
2023-01-23T02:59:20.040Z,23.53
2023-01-23T03:01:48.439Z,22.43
2023-01-23T03:04:15.665Z,22.40
2023-01-23T03:06:42.554Z,22.53
2023-01-23T03:09:11.924Z,22.33
2023-01-23T03:11:40.500Z,22.27
2023-01-23T03:14:10.248Z,22.43
2023-01-23T03:16:38.588Z,21.43
2023-01-23T03:19:09.136Z,22.53
2023-01-23T03:21:37.746Z,21.93
2023-01-23T03:24:06.049Z,22.77
2023-01-23T03:26:33.557Z,21.20
2023-01-23T03:29:19.156Z,21.47
2023-01-23T03:31:46.081Z,21.90
2023-01-23T03:34:14.925Z,20.53
2023-01-23T03:36:41.814Z,21.20
2023-01-23T03:39:27.368Z,23.23
2023-01-23T03:41:54.845Z,21.50
2023-01-23T03:44:22.684Z,22.27
2023-01-23T03:46:51.283Z,20.53
2023-01-23T03:49:20.263Z,22.30
2023-01-23T03:51:47.395Z,22.03
2023-01-23T03:54:14.824Z,21.10
2023-01-23T03:56:42.697Z,22.13
2023-01-23T03:59:09.945Z,23.57
2023-01-23T04:01:37.521Z,23.63
2023-01-23T04:04:05.147Z,27.00
2023-01-23T04:06:34.120Z,25.13
2023-01-23T04:09:01.027Z,22.23
2023-01-23T04:11:29.542Z,22.70
2023-01-23T04:13:56.497Z,23.37
2023-01-23T04:16:24.438Z,23.53
2023-01-23T04:18:52.151Z,23.33
2023-01-23T04:21:19.410Z,22.47
2023-01-23T04:23:47.704Z,23.03
2023-01-23T04:26:14.896Z,21.57
2023-01-23T04:28:41.757Z,23.03
2023-01-23T04:31:09.824Z,22.37
2023-01-23T04:33:37.020Z,23.57
2023-01-23T04:36:06.328Z,21.77
2023-01-23T04:38:34.347Z,22.27
2023-01-23T04:41:03.079Z,22.40
2023-01-23T04:43:30.796Z,20.80
2023-01-23T04:45:57.814Z,22.30
2023-01-23T04:48:25.754Z,22.20
2023-01-23T04:50:52.735Z,21.67
2023-01-23T04:53:20.154Z,22.17
2023-01-23T04:55:48.438Z,21.37
2023-01-23T04:58:18.161Z,22.50
2023-01-23T05:00:45.365Z,21.70
2023-01-23T05:03:12.731Z,21.20
2023-01-23T05:05:39.691Z,32.23
2023-01-23T05:08:07.089Z,22.70
2023-01-23T05:10:33.903Z,20.80
2023-01-23T05:13:01.053Z,21.73
2023-01-23T05:15:30.858Z,21.23
2023-01-23T05:17:58.330Z,20.70
2023-01-23T05:20:25.275Z,20.97
2023-01-23T05:22:52.847Z,21.00
2023-01-23T05:25:21.355Z,19.37
2023-01-23T05:27:48.887Z,21.67
2023-01-23T05:30:16.951Z,20.67
2023-01-23T05:32:45.623Z,20.20
2023-01-23T05:35:12.670Z,18.83
2023-01-23T05:37:39.949Z,18.40
2023-01-23T05:40:14.145Z,17.17
2023-01-23T05:42:41.288Z,17.07
2023-01-23T05:45:08.925Z,18.07
2023-01-23T05:47:36.314Z,17.80
2023-01-23T05:50:05.444Z,18.23
2023-01-23T05:52:32.634Z,18.73
2023-01-23T05:54:59.460Z,17.87
2023-01-23T05:57:26.698Z,20.10
2023-01-23T05:59:53.777Z,18.17
2023-01-23T06:02:20.746Z,17.33
2023-01-23T06:04:49.500Z,17.97
2023-01-23T06:07:19.779Z,17.23
2023-01-23T06:09:47.075Z,17.53
2023-01-23T06:12:14.138Z,17.87
2023-01-23T06:14:41.406Z,18.13
2023-01-23T06:17:08.419Z,17.83
2023-01-23T06:19:35.671Z,18.20
2023-01-23T06:22:02.493Z,18.13
2023-01-23T06:24:31.444Z,18.10
2023-01-23T06:26:58.296Z,18.33
2023-01-23T06:29:25.641Z,18.37
2023-01-23T06:31:52.537Z,18.63
2023-01-23T06:34:19.677Z,17.27
2023-01-23T06:36:47.378Z,16.93
2023-01-23T06:39:15.510Z,17.50
2023-01-23T06:41:44.479Z,17.83
2023-01-23T06:44:11.888Z,17.40
2023-01-23T06:46:38.860Z,18.83
2023-01-23T06:49:06.444Z,17.73
2023-01-23T06:51:33.661Z,18.37
2023-01-23T06:54:01.037Z,20.10
2023-01-23T06:56:28.098Z,19.13
2023-01-23T06:58:56.771Z,18.70
2023-01-23T07:01:24.100Z,18.67
2023-01-23T07:03:51.321Z,19.67
2023-01-23T07:06:18.258Z,18.77
2023-01-23T07:08:45.495Z,19.77
2023-01-23T07:11:12.437Z,19.90
2023-01-23T07:13:39.571Z,20.40
2023-01-23T07:16:08.333Z,19.63
2023-01-23T07:18:36.329Z,19.53
2023-01-23T07:21:05.928Z,20.87
2023-01-23T07:23:33.281Z,20.07
2023-01-23T07:26:00.476Z,20.67
2023-01-23T07:28:28.307Z,20.33
2023-01-23T07:30:55.508Z,19.93
2023-01-23T07:33:24.216Z,21.50
2023-01-23T07:35:51.103Z,20.67
2023-01-23T07:38:17.955Z,19.97
2023-01-23T07:40:45.377Z,20.40
2023-01-23T07:43:12.762Z,19.97
2023-01-23T07:45:39.592Z,20.80
2023-01-23T07:48:06.785Z,20.77
2023-01-23T07:50:35.692Z,21.00
2023-01-23T07:53:03.768Z,20.73
2023-01-23T07:55:30.544Z,20.90
2023-01-23T07:57:57.988Z,21.07
2023-01-23T08:00:27.095Z,21.67
2023-01-23T08:02:55.728Z,20.53
2023-01-23T08:05:22.694Z,21.50
2023-01-23T08:07:53.814Z,21.33
2023-01-23T08:10:24.699Z,20.63
2023-01-23T08:12:51.598Z,22.63
2023-01-23T08:15:18.660Z,21.10
2023-01-23T08:17:45.515Z,21.03
2023-01-23T08:20:12.672Z,20.83
2023-01-23T08:22:41.166Z,22.43
2023-01-23T08:25:10.830Z,21.83
2023-01-23T08:27:38.307Z,22.97
2023-01-23T08:30:06.789Z,22.93
2023-01-23T08:32:36.035Z,22.87
2023-01-23T08:35:04.434Z,22.53
2023-01-23T08:37:33.208Z,22.90
2023-01-23T08:40:00.376Z,23.23
2023-01-23T08:42:28.813Z,22.17
2023-01-23T08:44:55.803Z,22.10
2023-01-23T08:47:23.015Z,23.00
2023-01-23T08:49:49.901Z,22.97
2023-01-23T08:52:17.108Z,22.50
2023-01-23T08:54:43.943Z,22.83
2023-01-23T08:57:11.199Z,23.37
2023-01-23T08:59:39.429Z,23.87
2023-01-23T09:02:06.798Z,22.33
2023-01-23T09:04:33.811Z,23.17
2023-01-23T09:07:01.014Z,22.53
2023-01-23T09:09:29.405Z,21.77
2023-01-23T09:11:56.765Z,23.80
2023-01-23T09:14:23.651Z,23.90
2023-01-23T09:16:52.249Z,22.40
2023-01-23T09:19:19.266Z,23.13
2023-01-23T09:21:46.642Z,22.97
2023-01-23T09:24:13.472Z,23.70
2023-01-23T09:26:40.348Z,23.60
2023-01-23T09:29:07.359Z,23.67
2023-01-23T09:31:34.339Z,23.97
2023-01-23T09:34:03.776Z,23.10
2023-01-23T09:36:42.528Z,23.10
2023-01-23T09:39:10.375Z,22.83
2023-01-23T09:41:39.644Z,22.63
2023-01-23T09:44:12.696Z,22.60
2023-01-23T09:46:44.443Z,22.10
2023-01-23T09:49:19.659Z,21.60
2023-01-23T09:51:53.210Z,21.57
2023-01-23T09:54:32.687Z,21.23
2023-01-23T09:57:04.447Z,21.33
2023-01-23T09:59:47.116Z,19.30
2023-01-23T10:02:25.090Z,20.37
2023-01-23T10:04:56.576Z,20.77
2023-01-23T10:07:40.531Z,20.50
2023-01-23T10:10:25.912Z,20.60
2023-01-23T10:13:03.255Z,20.13
2023-01-23T10:15:55.415Z,20.43
2023-01-23T10:18:26.783Z,18.93
2023-01-23T10:21:05.926Z,21.17
2023-01-23T10:23:46.500Z,20.10
2023-01-23T10:26:19.012Z,21.47
2023-01-23T10:28:47.154Z,18.93
2023-01-23T10:31:25.000Z,20.40
2023-01-23T10:34:03.464Z,19.70
2023-01-23T10:36:47.809Z,20.27
2023-01-23T10:39:18.054Z,20.10
2023-01-23T10:41:51.169Z,20.90
2023-01-23T10:44:20.021Z,20.27
2023-01-23T10:46:49.895Z,21.03
2023-01-23T10:49:31.527Z,22.50
2023-01-23T10:51:59.771Z,20.83
2023-01-23T10:54:32.862Z,22.13
2023-01-23T10:57:02.409Z,20.67
2023-01-23T10:59:33.453Z,22.00
2023-01-23T11:02:19.409Z,22.30
2023-01-23T11:04:47.887Z,21.07
2023-01-23T11:07:18.989Z,20.30
2023-01-23T11:09:48.568Z,22.90
2023-01-23T11:12:19.006Z,20.67
2023-01-23T11:14:46.783Z,20.07
2023-01-23T11:17:19.081Z,21.43
2023-01-23T11:19:48.203Z,22.83
2023-01-23T11:22:32.383Z,21.53
2023-01-23T11:25:00.173Z,21.27
2023-01-23T11:27:30.135Z,20.33
2023-01-23T11:30:34.053Z,20.70
2023-01-23T11:33:12.736Z,20.13
2023-01-23T11:35:51.415Z,19.37
2023-01-23T11:38:30.824Z,19.77
2023-01-23T11:40:58.786Z,18.83
2023-01-23T11:43:25.663Z,18.67
2023-01-23T11:46:11.592Z,19.60
2023-01-23T11:48:56.493Z,19.10
2023-01-23T11:51:31.258Z,19.73
2023-01-23T11:54:12.259Z,23.13
2023-01-23T11:56:52.750Z,20.90
2023-01-23T11:59:45.670Z,20.80
2023-01-23T12:02:52.172Z,28.20
2023-01-23T12:06:18.860Z,22.60
2023-01-23T12:08:55.077Z,19.33
2023-01-23T12:11:24.447Z,19.07
2023-01-23T12:14:07.768Z,18.97
2023-01-23T12:16:50.797Z,19.67
2023-01-23T12:19:27.541Z,20.67
2023-01-23T12:22:06.347Z,19.63
2023-01-23T12:24:44.913Z,17.50
2023-01-23T12:27:28.076Z,18.03
2023-01-23T12:30:09.283Z,17.37
2023-01-23T12:32:51.878Z,17.00
2023-01-23T12:35:35.924Z,18.23
2023-01-23T12:38:14.202Z,19.40
2023-01-23T12:40:44.853Z,18.10
2023-01-23T12:43:15.897Z,18.20
2023-01-23T12:45:46.798Z,18.73
2023-01-23T12:48:17.886Z,17.67
2023-01-23T12:50:48.721Z,18.33
2023-01-23T12:53:17.380Z,21.00
2023-01-23T12:55:55.869Z,19.43
2023-01-23T12:58:28.347Z,19.17
2023-01-23T13:01:06.148Z,17.70
2023-01-23T13:03:49.774Z,17.77
2023-01-23T13:06:35.082Z,17.67
2023-01-23T13:09:17.939Z,17.30
2023-01-23T13:11:57.229Z,17.43
2023-01-23T13:15:03.575Z,18.70
2023-01-23T13:17:36.544Z,17.07
2023-01-23T13:20:40.193Z,17.30
2023-01-23T13:23:19.977Z,17.50
2023-01-23T13:25:47.085Z,17.13
2023-01-23T13:28:44.058Z,18.03
2023-01-23T13:31:37.390Z,17.37
2023-01-23T13:34:29.617Z,17.03
2023-01-23T13:37:34.098Z,18.33
2023-01-23T13:40:17.132Z,33.70
2023-01-23T13:42:44.372Z,19.63
2023-01-23T13:45:30.118Z,16.80
2023-01-23T14:20:30.856Z,19.63
2023-01-23T14:22:58.388Z,18.33
2023-01-23T14:25:26.053Z,19.63
2023-01-23T14:28:03.809Z,20.10
2023-01-23T14:30:32.274Z,19.93
2023-01-23T14:32:59.621Z,19.13
2023-01-23T14:35:28.987Z,18.73
2023-01-23T14:37:59.034Z,18.23
2023-01-23T14:40:30.621Z,18.53
2023-01-23T14:43:05.317Z,19.43
2023-01-23T14:45:34.214Z,17.33
2023-01-23T14:48:06.866Z,19.13
2023-01-23T14:50:34.819Z,18.73
2023-01-23T14:53:04.749Z,20.17
2023-01-23T14:55:36.024Z,18.17
2023-01-23T14:58:04.575Z,19.60
2023-01-23T15:00:34.362Z,19.67
2023-01-23T15:03:04.459Z,19.07
2023-01-23T15:05:32.805Z,20.50
2023-01-23T15:08:03.923Z,20.50
2023-01-23T15:10:34.875Z,22.87
2023-01-23T15:13:05.089Z,22.63
2023-01-23T15:15:34.889Z,19.23
2023-01-23T15:18:05.761Z,19.70
2023-01-23T15:20:36.431Z,20.70
2023-01-23T15:23:22.755Z,20.87
2023-01-23T15:26:00.672Z,20.70
2023-01-23T15:28:38.749Z,22.63
2023-01-23T15:31:27.390Z,22.67
2023-01-23T15:33:56.490Z,21.50
2023-01-23T15:36:27.170Z,21.97
2023-01-23T15:38:55.271Z,22.47
2023-01-23T15:41:39.693Z,23.03
2023-01-23T15:44:14.016Z,21.80
2023-01-23T15:46:42.275Z,22.93
2023-01-23T15:49:23.640Z,23.83
2023-01-23T15:51:52.272Z,24.17
2023-01-23T15:54:25.192Z,23.27
2023-01-23T15:57:05.636Z,24.97
2023-01-23T15:59:34.402Z,23.27
2023-01-23T16:02:02.624Z,23.33
2023-01-23T16:04:29.431Z,25.07
2023-01-23T16:06:57.287Z,23.77
2023-01-23T16:09:28.534Z,24.17
2023-01-23T16:11:55.447Z,25.57
2023-01-23T16:14:22.495Z,25.97
2023-01-23T16:16:49.751Z,26.33
2023-01-23T16:19:17.993Z,25.97
2023-01-23T16:21:47.679Z,24.90
2023-01-23T16:24:24.014Z,26.70
2023-01-23T16:26:52.479Z,25.33
2023-01-23T16:29:26.166Z,25.93
2023-01-23T16:31:54.231Z,26.20
2023-01-23T16:34:23.244Z,27.20
2023-01-23T16:36:51.828Z,26.20
2023-01-23T16:39:21.066Z,25.40
2023-01-23T16:41:49.798Z,25.70
2023-01-23T16:44:18.766Z,27.23
2023-01-23T16:46:46.549Z,26.20
2023-01-23T16:49:14.287Z,26.33
2023-01-23T16:51:46.593Z,28.17
2023-01-23T16:54:19.082Z,27.57
2023-01-23T16:56:48.263Z,27.07
2023-01-23T16:59:19.167Z,28.10
2023-01-23T17:01:49.757Z,27.87
2023-01-23T17:04:19.938Z,28.93
2023-01-23T17:06:49.137Z,27.60
2023-01-23T17:09:17.428Z,28.03
2023-01-23T17:11:47.626Z,29.27
2023-01-23T17:14:18.655Z,28.83
2023-01-23T17:16:47.360Z,27.37
2023-01-23T17:19:22.757Z,28.90
2023-01-23T17:21:52.003Z,27.27
2023-01-23T17:24:18.895Z,28.97
2023-01-23T17:26:45.923Z,30.53
2023-01-23T17:29:13.053Z,37.63
2023-01-23T17:31:40.520Z,32.47
2023-01-23T17:34:09.733Z,31.73
2023-01-23T17:36:37.045Z,28.37
2023-01-23T17:39:07.622Z,29.67
2023-01-23T17:41:34.822Z,30.97
2023-01-23T17:44:01.706Z,29.50
2023-01-23T17:46:31.953Z,30.67
2023-01-23T17:48:58.967Z,28.57
2023-01-23T17:51:26.964Z,30.70
2023-01-23T17:53:53.858Z,30.13
2023-01-23T17:56:22.464Z,30.23
2023-01-23T17:58:49.284Z,30.27
2023-01-23T18:01:22.586Z,29.30
2023-01-23T18:03:50.490Z,28.67
2023-01-23T18:06:18.939Z,30.03
2023-01-23T18:08:45.948Z,31.37
2023-01-23T18:11:21.413Z,30.00
2023-01-23T18:14:04.773Z,28.43
2023-01-23T18:16:36.612Z,27.83
2023-01-23T18:19:14.948Z,29.83
2023-01-23T18:21:42.618Z,28.70
2023-01-23T18:24:24.794Z,29.93
2023-01-23T18:26:58.149Z,28.27
2023-01-23T18:29:36.619Z,28.07
2023-01-23T18:32:20.162Z,28.20
2023-01-23T18:34:53.905Z,28.13
2023-01-23T18:37:28.835Z,28.43
2023-01-23T18:40:02.890Z,28.47
2023-01-23T18:42:35.533Z,27.53
2023-01-23T18:45:10.041Z,26.53
2023-01-23T18:47:37.562Z,26.17
2023-01-23T18:50:05.637Z,26.77
2023-01-23T18:52:44.776Z,26.50
2023-01-23T18:55:21.888Z,27.30
2023-01-23T18:58:00.701Z,27.33
2023-01-23T19:00:38.087Z,27.47
2023-01-23T19:03:12.287Z,27.67
2023-01-23T19:05:39.640Z,30.47
2023-01-23T19:08:07.085Z,30.83
2023-01-23T19:10:48.428Z,29.60
2023-01-23T19:13:20.132Z,29.43
2023-01-23T19:15:55.971Z,28.57
2023-01-23T19:18:44.827Z,28.60
2023-01-23T19:21:15.802Z,31.33
2023-01-23T19:23:47.592Z,29.77
2023-01-23T19:26:16.021Z,29.13
2023-01-23T19:28:43.867Z,29.97
2023-01-23T19:31:20.348Z,30.20
2023-01-23T19:33:47.479Z,30.03
2023-01-23T19:36:14.453Z,32.00
2023-01-23T19:38:41.356Z,31.40
2023-01-23T19:41:19.504Z,29.77
2023-01-23T19:43:51.031Z,29.17
2023-01-23T19:46:20.544Z,28.00
2023-01-23T19:48:47.540Z,29.70
2023-01-23T19:51:18.248Z,27.97
2023-01-23T19:53:45.953Z,27.77
2023-01-23T19:56:14.812Z,28.23
2023-01-23T19:58:42.287Z,26.93
2023-01-23T20:01:22.171Z,27.57
2023-01-23T20:03:49.420Z,27.00
2023-01-23T20:06:16.636Z,28.83
2023-01-23T20:08:43.494Z,26.93
2023-01-23T20:11:11.638Z,26.63
2023-01-23T20:13:40.767Z,29.00
2023-01-23T20:16:09.221Z,28.33
2023-01-23T20:18:37.432Z,27.70
2023-01-23T20:21:05.200Z,28.77
2023-01-23T20:23:32.067Z,28.93
2023-01-23T20:26:00.730Z,28.93
2023-01-23T20:28:28.448Z,29.77
2023-01-23T20:30:56.181Z,28.53
2023-01-23T20:33:24.175Z,30.30
2023-01-23T20:35:53.420Z,29.80
2023-01-23T20:38:20.953Z,28.90
2023-01-23T20:40:48.534Z,28.23
2023-01-23T20:43:16.265Z,28.93
2023-01-23T20:45:47.407Z,29.17
2023-01-23T20:48:15.355Z,28.53
2023-01-23T20:50:42.483Z,29.57
2023-01-23T20:53:31.206Z,30.03
2023-01-23T20:55:59.936Z,31.83
2023-01-23T20:58:45.644Z,31.70
2023-01-23T21:01:13.402Z,32.07
2023-01-23T21:03:41.308Z,30.60
2023-01-23T21:06:08.886Z,29.73
2023-01-23T21:08:37.704Z,29.47
2023-01-23T21:11:06.617Z,29.00
2023-01-23T21:13:33.552Z,29.17
2023-01-23T21:16:03.315Z,30.20
2023-01-23T21:18:30.540Z,28.73
2023-01-23T21:21:03.506Z,29.80
2023-01-23T21:23:30.568Z,29.03
2023-01-23T21:25:59.812Z,28.90
2023-01-23T21:28:28.132Z,29.20
2023-01-23T21:30:55.964Z,28.10
2023-01-23T21:33:23.560Z,30.37
2023-01-23T21:35:51.433Z,28.93
2023-01-23T21:38:18.415Z,29.40
2023-01-23T21:40:45.355Z,28.70
2023-01-23T21:43:13.631Z,28.80
2023-01-23T21:45:41.661Z,30.70
2023-01-23T21:48:08.536Z,29.30
2023-01-23T21:50:35.796Z,30.50
2023-01-23T21:53:02.682Z,29.83
2023-01-23T21:55:30.066Z,27.93
2023-01-23T21:57:56.902Z,29.63
2023-01-23T22:00:43.551Z,29.20
2023-01-23T22:03:10.442Z,30.37
2023-01-23T22:05:37.635Z,29.20
2023-01-23T22:08:04.989Z,29.53
2023-01-23T22:10:32.272Z,30.20
2023-01-23T22:12:59.175Z,28.67
2023-01-23T22:15:27.443Z,30.63
2023-01-23T22:17:54.298Z,30.43
2023-01-23T22:20:21.522Z,30.23
2023-01-23T22:22:48.386Z,29.77
2023-01-23T22:25:15.623Z,28.47
2023-01-23T22:27:42.531Z,30.10
2023-01-23T22:30:10.447Z,28.70
2023-01-23T22:32:38.633Z,27.03
2023-01-23T22:35:06.978Z,28.13
2023-01-23T22:37:33.786Z,27.40
2023-01-23T22:40:01.014Z,27.33
2023-01-23T22:42:27.862Z,28.63
2023-01-23T22:44:55.121Z,29.47
2023-01-23T22:47:21.913Z,28.23
2023-01-23T22:49:50.127Z,27.10
2023-01-23T22:52:16.996Z,27.80
2023-01-23T22:54:43.949Z,27.07
2023-01-23T22:57:10.970Z,27.47
2023-01-23T22:59:38.260Z,29.13
2023-01-23T23:02:05.228Z,27.50
2023-01-23T23:04:32.937Z,27.77
2023-01-23T23:07:01.325Z,25.70
2023-01-23T23:09:28.707Z,27.00
2023-01-23T23:11:55.604Z,27.63
2023-01-23T23:14:22.475Z,26.47
2023-01-23T23:16:49.338Z,26.93
2023-01-23T23:19:16.549Z,26.27
2023-01-23T23:21:43.416Z,25.93
2023-01-23T23:24:14.008Z,24.80
2023-01-23T23:26:41.183Z,26.23
2023-01-23T23:29:08.430Z,25.03
2023-01-23T23:31:35.565Z,27.00
2023-01-23T23:34:02.751Z,28.57
2023-01-23T23:36:30.208Z,25.73
2023-01-23T23:38:57.163Z,24.63
2023-01-23T23:41:25.822Z,24.53
2023-01-23T23:43:52.576Z,25.13
2023-01-23T23:46:19.732Z,24.83
2023-01-23T23:48:47.990Z,24.87
2023-01-23T23:51:19.032Z,24.70
2023-01-23T23:53:46.550Z,25.27
2023-01-23T23:56:20.109Z,24.97
2023-01-23T23:58:48.552Z,24.33
